Portada
METAR-TAF:

METAR-TAF

Aeroports :

Northwest Arkansas Regional Airport

Fayetteville, Arkansas, Estats Units d'Amèrica

latitud: 36-16-55N, longitud: 094-18-25W, altitud: 392 m

Observació

L'informe es va fer fa 36 minuts, a les 11:53 UTC
Vent calma
Temperatura 13°C
Humitat 82%
Pressió 1024 hPa
Visibilitat: 16.1 km
Cel clar

METAR: KXNA 301153Z 00000KT 10SM CLR 13/10 A3023 RMK AO2 SLP227 T01280100 10139 20100 53013

Hora: 07:29 (12:29 UTC)

Pronòstic

L'informe es va fer fa 1 hora i 9 minuts, a les 11:20 UTC
Pronòstic vàlid del 30 a les 12 UTC al 31 a les 12 UTC
Vent 5 kt amb direcció variable
Visibilitat: 10 km
Núvols disperses a una alçada de 25000 ft

TAF: KXNA 301120Z 3012/3112 VRB05KT P6SM SCT250

Observacions i pronòstics meteorològics de més de 4000 aeroports (METAR i TAF).

Les estacions disponibles són els punts grocs i vermells al mapa.

Posi el ratolí al punt desitjat per veure el nom de l'estació.

Feu clic per veure les observacions i els pronòstics meteorològics.

Per canviar el mapa: feu clic els botons verds amb una creu de color negre per apropar; al botó verd amb un guió per allunyar la imatge; o en les fletxes verdes per a mapes adjacents.


METAR-TAF: